createdAt,value
2022-12-29T00:02:01.551Z,2.42
2022-12-29T00:04:28.569Z,2.83
2022-12-29T00:06:55.350Z,2.38
2022-12-29T00:09:22.218Z,2.33
2022-12-29T00:11:50.986Z,2.40
2022-12-29T00:14:36.703Z,2.30
2022-12-29T00:17:04.312Z,2.17
2022-12-29T00:19:49.423Z,2.47
2022-12-29T00:22:35.044Z,2.22
2022-12-29T00:25:20.828Z,2.70
2022-12-29T00:28:07.463Z,2.90
2022-12-29T00:30:53.106Z,2.67
2022-12-29T00:33:48.351Z,2.90
2022-12-29T00:36:33.393Z,2.63
2022-12-29T00:39:38.147Z,3.05
2022-12-29T00:42:26.002Z,3.33
2022-12-29T00:44:52.812Z,2.90
2022-12-29T00:47:19.608Z,3.05
2022-12-29T00:49:46.458Z,2.97
2022-12-29T00:52:14.805Z,2.85
2022-12-29T00:54:42.630Z,2.78
2022-12-29T00:57:11.087Z,2.60
2022-12-29T00:59:40.378Z,2.28
2022-12-29T01:02:08.247Z,2.60
2022-12-29T01:04:35.842Z,2.65
2022-12-29T01:07:02.810Z,2.70
2022-12-29T01:09:48.091Z,2.72
2022-12-29T01:12:15.049Z,2.88
2022-12-29T01:14:41.966Z,2.97
2022-12-29T01:17:08.919Z,2.60
2022-12-29T01:19:35.689Z,2.70
2022-12-29T01:22:02.923Z,2.95
2022-12-29T01:24:29.705Z,3.20
2022-12-29T01:26:56.540Z,3.05
2022-12-29T01:29:23.640Z,2.95
2022-12-29T01:31:51.144Z,2.58
2022-12-29T01:34:18.878Z,3.30
2022-12-29T01:36:45.986Z,2.80
2022-12-29T01:39:12.905Z,2.80
2022-12-29T01:41:42.508Z,2.92
2022-12-29T01:44:51.573Z,2.50
2022-12-29T01:47:37.293Z,3.30
2022-12-29T01:50:31.574Z,3.00
2022-12-29T01:53:25.874Z,2.50
2022-12-29T01:56:00.894Z,2.67
2022-12-29T01:58:35.128Z,3.13
2022-12-29T02:01:02.723Z,2.80
2022-12-29T02:03:33.035Z,2.92
2022-12-29T02:06:06.957Z,2.80
2022-12-29T02:08:34.173Z,2.47
2022-12-29T02:11:02.421Z,2.67
2022-12-29T02:13:31.917Z,2.85
2022-12-29T02:16:59.071Z,2.63
2022-12-29T02:19:48.858Z,2.50
2022-12-29T02:22:57.692Z,2.90
2022-12-29T02:25:57.017Z,3.03
2022-12-29T02:28:54.170Z,2.78
2022-12-29T02:31:59.582Z,2.90
2022-12-29T02:37:17.438Z,2.70
2022-12-29T02:40:16.923Z,3.00
2022-12-29T02:43:14.976Z,2.65
2022-12-29T02:46:03.737Z,2.80
2022-12-29T02:48:32.241Z,2.55
2022-12-29T02:51:13.848Z,2.85
2022-12-29T02:54:00.010Z,2.72
2022-12-29T02:56:26.785Z,2.97
2022-12-29T02:58:53.627Z,2.70
2022-12-29T03:02:19.403Z,2.70
2022-12-29T03:05:10.754Z,2.55
2022-12-29T03:07:40.222Z,2.67
2022-12-29T03:10:26.419Z,2.40
2022-12-29T03:13:41.165Z,2.70
2022-12-29T03:16:26.858Z,2.50
2022-12-29T03:19:05.952Z,2.30
2022-12-29T03:22:11.334Z,2.65
2022-12-29T03:24:44.570Z,2.60
2022-12-29T03:27:18.060Z,2.83
2022-12-29T03:29:56.813Z,2.70
2022-12-29T03:32:32.742Z,2.50
2022-12-29T03:35:00.136Z,2.38
2022-12-29T03:37:38.092Z,2.10
2022-12-29T03:40:06.184Z,2.60
2022-12-29T03:42:36.810Z,2.70
2022-12-29T03:45:06.746Z,2.30
2022-12-29T03:47:33.569Z,2.13
2022-12-29T03:50:00.807Z,2.35
2022-12-29T03:52:27.564Z,3.20
2022-12-29T03:54:54.325Z,2.60
2022-12-29T03:57:21.164Z,2.72
2022-12-29T03:59:48.168Z,3.08
2022-12-29T04:02:15.192Z,2.55
2022-12-29T04:04:42.020Z,2.63
2022-12-29T04:07:08.909Z,2.60
2022-12-29T04:09:35.789Z,2.30
2022-12-29T04:12:02.548Z,2.60
2022-12-29T04:14:29.395Z,2.70
2022-12-29T04:16:56.177Z,2.80
2022-12-29T04:19:23.005Z,2.80
2022-12-29T04:21:49.845Z,2.53
2022-12-29T04:24:16.606Z,2.95
2022-12-29T04:26:45.710Z,2.78
2022-12-29T04:29:12.502Z,2.70
2022-12-29T04:31:39.432Z,2.72
2022-12-29T04:34:06.255Z,2.90
2022-12-29T04:36:33.193Z,2.50
2022-12-29T04:39:00.003Z,3.10
2022-12-29T04:41:27.016Z,2.55
2022-12-29T04:43:53.860Z,3.00
2022-12-29T04:46:20.716Z,3.40
2022-12-29T04:48:47.741Z,2.50
2022-12-29T04:51:14.633Z,2.58
2022-12-29T04:53:41.821Z,3.15
2022-12-29T04:56:10.032Z,7.85
2022-12-29T04:58:37.435Z,20.52
2022-12-29T05:01:04.259Z,21.48
2022-12-29T05:03:31.070Z,19.60
2022-12-29T05:05:58.382Z,25.23
2022-12-29T05:08:28.239Z,23.00
2022-12-29T05:10:55.508Z,25.92
2022-12-29T05:13:22.247Z,18.38
2022-12-29T05:15:52.911Z,12.70
2022-12-29T05:18:20.390Z,9.55
2022-12-29T05:20:48.165Z,8.05
2022-12-29T05:23:15.291Z,11.38
2022-12-29T05:25:42.122Z,8.43
2022-12-29T05:28:08.965Z,10.88
2022-12-29T05:30:35.760Z,13.75
2022-12-29T05:33:02.577Z,10.45
2022-12-29T05:35:29.406Z,8.13
2022-12-29T05:37:56.197Z,7.93
2022-12-29T05:40:23.170Z,7.18
2022-12-29T05:42:49.984Z,6.25
2022-12-29T05:45:16.833Z,5.07
2022-12-29T05:47:43.668Z,6.57
2022-12-29T05:50:10.515Z,5.55
2022-12-29T05:52:37.300Z,4.65
2022-12-29T05:55:04.566Z,5.30
2022-12-29T05:57:31.326Z,6.05
2022-12-29T05:59:58.085Z,5.32
2022-12-29T06:02:24.987Z,4.90
2022-12-29T06:04:51.990Z,4.47
2022-12-29T06:07:18.799Z,4.75
2022-12-29T06:09:45.559Z,3.60
2022-12-29T06:12:12.411Z,3.30
2022-12-29T06:14:39.274Z,3.60
2022-12-29T06:17:06.031Z,3.40
2022-12-29T06:19:33.363Z,3.53
2022-12-29T06:22:00.155Z,3.42
2022-12-29T06:24:27.025Z,3.63
2022-12-29T06:26:53.810Z,2.90
2022-12-29T06:29:21.471Z,3.17
2022-12-29T06:31:49.710Z,3.05
2022-12-29T06:34:16.772Z,2.75
2022-12-29T06:36:44.061Z,2.88
2022-12-29T06:39:11.802Z,3.00
2022-12-29T06:41:38.872Z,2.72
2022-12-29T06:44:05.697Z,3.95
2022-12-29T06:46:32.621Z,3.40
2022-12-29T06:48:59.481Z,3.70
2022-12-29T06:51:26.250Z,2.88
2022-12-29T06:53:53.001Z,3.13
2022-12-29T06:56:19.777Z,3.28
2022-12-29T06:58:46.527Z,2.88
2022-12-29T07:01:13.444Z,2.60
2022-12-29T07:03:43.933Z,2.05
2022-12-29T07:06:10.741Z,1.88
2022-12-29T07:08:37.632Z,2.13
2022-12-29T07:11:04.664Z,2.05
2022-12-29T07:13:31.434Z,2.30
2022-12-29T07:15:58.215Z,2.63
2022-12-29T07:18:24.996Z,2.25
2022-12-29T07:20:51.830Z,2.38
2022-12-29T07:23:18.621Z,2.50
2022-12-29T07:25:45.372Z,2.90
2022-12-29T07:28:12.222Z,3.47
2022-12-29T07:30:39.458Z,4.88
2022-12-29T07:33:06.367Z,4.05
2022-12-29T07:35:35.364Z,5.30
2022-12-29T07:38:02.171Z,6.10
2022-12-29T07:40:28.907Z,5.82
2022-12-29T07:42:55.665Z,5.45
2022-12-29T07:45:22.469Z,4.70
2022-12-29T07:47:50.845Z,8.18
2022-12-29T07:50:17.741Z,6.13
2022-12-29T07:52:47.074Z,7.50
2022-12-29T07:55:13.866Z,7.50
2022-12-29T07:57:40.641Z,4.78
2022-12-29T08:00:08.525Z,5.05
2022-12-29T08:02:35.354Z,6.07
2022-12-29T08:05:02.198Z,2.47
2022-12-29T08:07:29.042Z,2.60
2022-12-29T08:09:55.843Z,2.17
2022-12-29T08:12:22.627Z,2.15
2022-12-29T08:14:50.048Z,2.22
2022-12-29T08:17:16.802Z,2.13
2022-12-29T08:19:43.695Z,1.98
2022-12-29T08:22:10.584Z,2.13
2022-12-29T08:24:37.396Z,1.90
2022-12-29T08:27:13.108Z,2.90
2022-12-29T08:29:45.032Z,3.90
2022-12-29T08:32:12.363Z,2.40
2022-12-29T08:34:39.130Z,2.20
2022-12-29T08:37:06.132Z,2.92
2022-12-29T08:39:32.887Z,2.03
2022-12-29T08:42:00.093Z,2.20
2022-12-29T08:44:27.225Z,1.90
2022-12-29T08:46:54.256Z,2.42
2022-12-29T08:49:21.127Z,2.08
2022-12-29T08:51:48.236Z,2.10
2022-12-29T08:54:15.054Z,2.08
2022-12-29T08:56:42.428Z,1.60
2022-12-29T08:59:09.252Z,2.25
2022-12-29T09:01:37.629Z,2.97
2022-12-29T09:04:15.006Z,2.70
2022-12-29T09:06:43.357Z,2.78
2022-12-29T09:09:10.372Z,3.85
2022-12-29T09:11:37.470Z,4.32
2022-12-29T09:14:05.185Z,3.50
2022-12-29T09:16:32.593Z,3.20
2022-12-29T09:18:59.407Z,3.40
2022-12-29T09:21:26.293Z,2.83
2022-12-29T09:23:53.429Z,2.60
2022-12-29T09:26:20.779Z,2.22
2022-12-29T09:28:48.339Z,2.10
2022-12-29T09:31:15.518Z,2.10
2022-12-29T09:33:42.377Z,2.28
2022-12-29T09:36:10.593Z,2.25
2022-12-29T09:38:37.545Z,2.33
2022-12-29T09:41:27.915Z,2.00
2022-12-29T09:44:24.393Z,2.00
2022-12-29T09:46:54.461Z,2.20
2022-12-29T09:49:25.606Z,2.60
2022-12-29T09:51:58.435Z,2.70
2022-12-29T09:54:34.293Z,2.10
2022-12-29T09:57:02.364Z,2.10
2022-12-29T09:59:42.634Z,2.92
2022-12-29T10:02:29.998Z,3.58
2022-12-29T10:04:58.528Z,4.97
2022-12-29T10:08:28.414Z,4.20
2022-12-29T10:11:15.239Z,3.70
2022-12-29T10:14:03.189Z,2.70
2022-12-29T10:17:04.472Z,3.33
2022-12-29T10:20:24.699Z,1.90
2022-12-29T10:23:20.931Z,2.40
2022-12-29T10:25:48.283Z,2.17
2022-12-29T10:28:34.399Z,2.30
2022-12-29T10:31:08.775Z,2.15
2022-12-29T10:33:41.621Z,2.67
2022-12-29T10:36:21.671Z,6.72
2022-12-29T10:39:16.265Z,16.10
2022-12-29T10:41:57.189Z,7.10
2022-12-29T10:44:29.682Z,3.70
2022-12-29T10:47:04.012Z,2.65
2022-12-29T10:49:33.640Z,2.15
2022-12-29T10:52:05.632Z,2.17
2022-12-29T10:54:58.424Z,2.30
2022-12-29T10:57:50.673Z,2.08
2022-12-29T11:00:23.304Z,2.10
2022-12-29T11:03:29.685Z,2.55
2022-12-29T11:06:27.448Z,2.13
2022-12-29T11:09:17.105Z,2.15
2022-12-29T11:11:44.193Z,1.98
2022-12-29T11:14:18.375Z,2.20
2022-12-29T11:16:46.315Z,2.10
2022-12-29T11:19:26.599Z,2.05
2022-12-29T11:21:54.072Z,2.50
2022-12-29T11:24:27.706Z,2.10
2022-12-29T11:27:16.654Z,2.13
2022-12-29T11:29:45.389Z,1.92
2022-12-29T11:32:27.838Z,2.03
2022-12-29T11:34:55.335Z,2.30
2022-12-29T11:37:40.122Z,2.90
2022-12-29T11:40:27.666Z,4.78
2022-12-29T11:43:05.445Z,5.07
2022-12-29T11:45:38.402Z,2.92
2022-12-29T11:48:21.660Z,3.20
2022-12-29T11:50:57.063Z,2.65
2022-12-29T11:53:38.117Z,2.45
2022-12-29T11:56:14.634Z,2.40
2022-12-29T11:58:42.806Z,2.20
2022-12-29T12:01:48.716Z,2.15
2022-12-29T12:04:19.715Z,2.55
2022-12-29T12:07:13.499Z,2.20
2022-12-29T12:10:07.486Z,2.33
2022-12-29T12:13:26.844Z,2.00
2022-12-29T12:16:19.557Z,2.35
2022-12-29T12:19:00.703Z,2.33
2022-12-29T12:21:45.861Z,2.00
2022-12-29T12:24:35.190Z,2.10
2022-12-29T12:27:25.892Z,2.13
2022-12-29T12:30:14.837Z,2.42
2022-12-29T12:33:03.762Z,2.40
2022-12-29T12:35:59.547Z,2.20
2022-12-29T12:38:44.530Z,2.20
2022-12-29T12:41:52.145Z,2.33
2022-12-29T12:44:50.303Z,2.28
2022-12-29T12:47:53.369Z,3.17
2022-12-29T12:50:51.177Z,1.98
2022-12-29T12:53:54.317Z,2.22
2022-12-29T12:56:57.120Z,2.50
2022-12-29T12:59:37.718Z,4.50
2022-12-29T13:02:33.157Z,3.30
2022-12-29T13:05:40.442Z,2.63
2022-12-29T13:08:41.663Z,2.88
2022-12-29T13:12:11.479Z,6.40
2022-12-29T13:15:10.640Z,2.60
2022-12-29T13:17:58.321Z,2.22
2022-12-29T13:20:44.242Z,2.40
2022-12-29T13:23:36.917Z,2.00
2022-12-29T13:26:25.539Z,2.10
2022-12-29T13:29:33.822Z,2.05
2022-12-29T13:32:39.853Z,2.33
2022-12-29T13:35:37.819Z,2.63
2022-12-29T13:38:24.433Z,2.10
2022-12-29T13:40:57.996Z,2.40
2022-12-29T13:43:28.314Z,2.25
2022-12-29T13:46:10.442Z,2.40
2022-12-29T13:49:05.635Z,2.13
2022-12-29T13:51:34.154Z,2.75
2022-12-29T13:54:39.140Z,2.45
2022-12-29T13:57:30.915Z,2.40
2022-12-29T14:00:06.323Z,2.50
2022-12-29T14:02:47.930Z,2.42
2022-12-29T14:05:23.993Z,3.80
2022-12-29T14:08:01.928Z,2.70
2022-12-29T14:10:58.459Z,2.60
2022-12-29T14:13:26.903Z,2.90
2022-12-29T14:15:59.477Z,2.60
2022-12-29T14:18:34.282Z,2.30
2022-12-29T14:21:28.702Z,2.67
2022-12-29T14:24:02.064Z,2.30
2022-12-29T14:26:36.795Z,2.70
2022-12-29T14:29:25.465Z,4.05
2022-12-29T14:31:53.779Z,4.32
2022-12-29T14:34:40.822Z,4.60
2022-12-29T14:37:28.832Z,3.95
2022-12-29T14:40:27.080Z,5.10
2022-12-29T14:42:56.528Z,3.58
2022-12-29T14:45:38.344Z,2.60
2022-12-29T14:48:31.864Z,2.90
2022-12-29T14:53:49.988Z,3.85
2022-12-29T14:56:21.106Z,3.92
2022-12-29T14:58:59.036Z,3.50
2022-12-29T15:01:45.691Z,3.80
2022-12-29T15:04:23.950Z,4.10
2022-12-29T15:06:51.188Z,3.72
2022-12-29T15:09:51.109Z,4.80
2022-12-29T15:12:22.191Z,6.13
2022-12-29T15:15:01.164Z,4.80
2022-12-29T15:17:34.095Z,3.80
2022-12-29T15:20:17.524Z,3.80
2022-12-29T15:22:57.210Z,4.03
2022-12-29T15:25:25.399Z,4.00
2022-12-29T15:27:55.071Z,3.78
2022-12-29T15:30:23.112Z,3.45
2022-12-29T15:32:51.101Z,4.75
2022-12-29T15:35:35.886Z,4.50
2022-12-29T15:38:17.497Z,4.03
2022-12-29T15:40:47.933Z,3.95
2022-12-29T15:43:46.967Z,4.10
2022-12-29T15:46:14.996Z,3.60
2022-12-29T15:48:42.286Z,2.90
2022-12-29T15:51:23.057Z,4.28
2022-12-29T15:53:52.238Z,3.65
2022-12-29T15:56:19.821Z,3.10
2022-12-29T15:58:51.264Z,3.20
2022-12-29T16:01:35.258Z,3.40
2022-12-29T16:04:07.467Z,3.70
2022-12-29T16:06:40.611Z,4.00
2022-12-29T16:09:19.762Z,4.75
2022-12-29T16:11:56.356Z,5.20
2022-12-29T16:14:33.261Z,3.80
2022-12-29T16:17:07.395Z,3.70
2022-12-29T16:19:38.581Z,3.17
2022-12-29T16:22:19.455Z,3.75
2022-12-29T16:24:47.017Z,3.85
2022-12-29T16:27:28.101Z,4.18
2022-12-29T16:29:56.448Z,4.68
2022-12-29T16:32:32.381Z,3.45
2022-12-29T16:35:21.909Z,3.83
2022-12-29T16:37:49.757Z,3.67
2022-12-29T16:40:20.535Z,3.90
2022-12-29T16:42:52.318Z,3.80
2022-12-29T16:45:22.431Z,4.50
2022-12-29T16:48:07.561Z,4.68
2022-12-29T16:50:37.483Z,4.28
2022-12-29T16:53:06.347Z,4.35
2022-12-29T16:55:33.716Z,4.18
2022-12-29T16:58:01.328Z,4.32
2022-12-29T17:00:35.847Z,4.22
2022-12-29T17:03:04.297Z,3.38
2022-12-29T17:05:31.175Z,4.25
2022-12-29T17:08:02.167Z,3.90
2022-12-29T17:10:47.850Z,4.20
2022-12-29T17:13:14.743Z,3.88
2022-12-29T17:15:41.667Z,3.72
2022-12-29T17:18:13.936Z,3.85
2022-12-29T17:20:41.321Z,3.80
2022-12-29T17:23:22.604Z,4.30
2022-12-29T17:25:51.727Z,3.88
2022-12-29T17:28:29.758Z,6.53
2022-12-29T17:31:04.142Z,4.72
2022-12-29T17:33:38.589Z,3.88
2022-12-29T17:36:05.649Z,5.10
2022-12-29T17:38:36.029Z,5.10
2022-12-29T17:41:03.190Z,5.15
2022-12-29T17:43:36.412Z,5.00
2022-12-29T17:46:07.416Z,4.60
2022-12-29T17:48:34.518Z,5.32
2022-12-29T17:51:01.424Z,5.35
2022-12-29T17:53:30.016Z,4.63
2022-12-29T17:55:57.141Z,4.68
2022-12-29T17:58:26.226Z,3.65
2022-12-29T18:00:56.744Z,4.28
2022-12-29T18:03:34.427Z,4.32
2022-12-29T18:06:02.129Z,6.72
2022-12-29T18:08:29.426Z,6.53
2022-12-29T18:10:56.828Z,5.47
2022-12-29T18:13:40.489Z,6.43
2022-12-29T18:16:13.340Z,6.50
2022-12-29T18:18:40.309Z,5.78
2022-12-29T18:21:07.519Z,8.02
2022-12-29T18:23:37.602Z,9.20
2022-12-29T18:26:25.478Z,10.73
2022-12-29T18:28:54.515Z,8.85
2022-12-29T18:31:30.476Z,8.98
2022-12-29T18:33:59.817Z,6.40
2022-12-29T18:36:27.538Z,5.22
2022-12-29T18:38:54.719Z,5.45
2022-12-29T18:41:29.649Z,4.72
2022-12-29T18:43:57.591Z,4.07
2022-12-29T18:46:24.893Z,4.68
2022-12-29T18:48:53.145Z,4.63
2022-12-29T18:51:23.542Z,4.10
2022-12-29T18:53:53.753Z,5.05
2022-12-29T18:56:23.860Z,4.53
2022-12-29T18:58:51.500Z,4.90
2022-12-29T19:01:27.630Z,5.07
2022-12-29T19:03:54.874Z,4.97
2022-12-29T19:06:21.948Z,4.57
2022-12-29T19:08:49.158Z,6.10
2022-12-29T19:11:16.084Z,4.95
2022-12-29T19:13:42.896Z,3.92
2022-12-29T19:16:27.357Z,4.10
2022-12-29T19:19:08.504Z,4.10
2022-12-29T19:21:37.523Z,4.35
2022-12-29T19:24:05.133Z,4.32
2022-12-29T19:26:36.460Z,4.68
2022-12-29T19:29:05.707Z,12.60
2022-12-29T19:31:32.750Z,7.32
2022-12-29T19:34:02.887Z,4.05
2022-12-29T19:36:29.856Z,4.05
2022-12-29T19:38:56.937Z,3.65
2022-12-29T19:41:24.282Z,3.70
2022-12-29T19:43:51.266Z,3.40
2022-12-29T19:46:19.997Z,3.42
2022-12-29T19:48:46.937Z,3.55
2022-12-29T19:51:17.079Z,4.18
2022-12-29T19:53:47.546Z,3.40
2022-12-29T19:56:15.302Z,3.25
2022-12-29T19:58:46.841Z,3.50
2022-12-29T20:01:21.841Z,3.53
2022-12-29T20:03:50.115Z,3.30
2022-12-29T20:06:18.174Z,3.40
2022-12-29T20:08:45.042Z,3.00
2022-12-29T20:11:18.013Z,2.70
2022-12-29T20:13:45.568Z,3.20
2022-12-29T20:16:17.500Z,3.53
2022-12-29T20:18:45.326Z,3.00
2022-12-29T20:21:22.950Z,3.53
2022-12-29T20:23:51.961Z,3.80
2022-12-29T20:26:27.080Z,3.17
2022-12-29T20:28:55.145Z,3.30
2022-12-29T20:31:36.224Z,3.80
2022-12-29T20:34:05.219Z,3.70
2022-12-29T20:36:35.254Z,3.60
2022-12-29T20:39:06.468Z,3.30
2022-12-29T20:41:33.970Z,3.42
2022-12-29T20:44:00.908Z,4.20
2022-12-29T20:46:35.027Z,4.22
2022-12-29T20:49:04.401Z,5.07
2022-12-29T20:51:59.366Z,5.75
2022-12-29T20:54:06.533Z,4.88
2022-12-29T20:56:33.347Z,4.60
2022-12-29T20:59:26.262Z,4.00
2022-12-29T21:01:47.131Z,4.03
2022-12-29T21:04:14.202Z,3.97
2022-12-29T21:06:41.011Z,3.33
2022-12-29T21:09:08.134Z,3.40
2022-12-29T21:11:35.273Z,3.80
2022-12-29T21:14:02.411Z,4.88
2022-12-29T21:16:29.648Z,3.88
2022-12-29T21:18:56.561Z,4.22
2022-12-29T21:21:25.456Z,4.75
2022-12-29T21:23:52.862Z,4.43
2022-12-29T21:26:23.054Z,4.18
2022-12-29T21:28:51.400Z,4.45
2022-12-29T21:31:36.044Z,4.13
2022-12-29T21:34:05.226Z,4.47
2022-12-29T21:36:33.136Z,3.45
2022-12-29T21:39:00.884Z,3.80
2022-12-29T21:41:27.736Z,4.07
2022-12-29T21:44:13.050Z,3.60
2022-12-29T21:46:43.828Z,5.10
2022-12-29T21:49:10.830Z,4.07
2022-12-29T21:51:49.935Z,3.55
2022-12-29T21:54:44.352Z,3.22
2022-12-29T21:57:17.942Z,3.55
2022-12-29T22:00:06.217Z,3.25
2022-12-29T22:02:51.435Z,3.20
2022-12-29T22:05:36.678Z,3.70
2022-12-29T22:08:22.261Z,3.15
2022-12-29T22:11:08.076Z,4.43
2022-12-29T22:13:37.596Z,3.58
2022-12-29T22:16:07.173Z,3.35
2022-12-29T22:18:35.239Z,3.35
2022-12-29T22:21:11.752Z,3.42
2022-12-29T22:23:39.497Z,3.10
2022-12-29T22:26:12.668Z,3.03
2022-12-29T22:28:46.049Z,3.20
2022-12-29T22:31:29.600Z,3.50
2022-12-29T22:34:00.484Z,3.10
2022-12-29T22:36:28.697Z,3.05
2022-12-29T22:38:55.992Z,3.50
2022-12-29T22:41:24.177Z,2.97
2022-12-29T22:43:52.096Z,3.40
2022-12-29T22:46:20.889Z,3.45
2022-12-29T22:48:47.813Z,3.33
2022-12-29T22:51:14.682Z,3.33
2022-12-29T22:53:41.783Z,3.47
2022-12-29T22:56:13.069Z,3.40
2022-12-29T22:58:42.325Z,3.67
2022-12-29T23:01:10.955Z,3.70
2022-12-29T23:03:39.529Z,3.72
2022-12-29T23:06:11.621Z,3.45
2022-12-29T23:08:40.313Z,3.55
2022-12-29T23:11:11.255Z,3.42
2022-12-29T23:13:40.706Z,3.65
2022-12-29T23:16:08.083Z,4.03
2022-12-29T23:18:35.081Z,3.38
2022-12-29T23:21:02.267Z,3.53
2022-12-29T23:23:49.600Z,3.70
2022-12-29T23:26:26.854Z,3.20
2022-12-29T23:28:59.968Z,3.47
2022-12-29T23:31:28.313Z,3.55
2022-12-29T23:33:56.255Z,3.72
2022-12-29T23:36:23.363Z,4.25
2022-12-29T23:38:50.197Z,4.40
2022-12-29T23:41:17.111Z,3.90
2022-12-29T23:43:44.091Z,3.25
2022-12-29T23:46:15.277Z,2.35
2022-12-29T23:48:42.454Z,3.45
2022-12-29T23:51:10.179Z,3.00
2022-12-29T23:53:41.297Z,2.60
2022-12-29T23:56:12.636Z,1.38
2022-12-29T23:58:39.453Z,1.25
